Latest Coastal Weather Observations for Broome Port

IDW60701

Issued at 8:03 pm WST Monday 21 August 2017 (issued every 10 minutes, with the page automatically refreshed every 10 minutes)

About coastal observations | Map of coastal stations | Coastal observations for WA | Marine services | Other Formats
Station Details ID: 003102 Name: BROOME NTC AWS Lat: -18.00 Lon: 122.22 Height: 0.0 m
Data from the previous 72 hours. | See also: Recent months for locations in Western Australia
Date/Time
WST
Temp
°C
Wind Pressure Rain since
9am
mm
Weather Cloud Vis
km
Sea
Height
m
Swell
Dir  Spd
kts
Gust
kts
hPa Trend Height
m
Period
s
Dir
21/08:00pm 24.9 SW 13 15 1012.0 - - - - - - - - -
21/07:30pm 25.0 SW 11 13 1011.8 - - - - - - - - -
21/07:00pm 24.8 WSW 10 13 1011.5 - - - - - - - - -
21/06:30pm 24.8 WSW 11 13 1011.2 - - - - - - - - -
21/06:00pm 25.1 WSW 11 14 1011.0 - - - - - - - - -
21/05:30pm 25.1 WSW 11 14 1010.7 - - - - - - - - -
21/05:00pm 25.5 WSW 12 15 1010.5 - - - - - - - - -
21/04:30pm 26.1 WSW 13 16 1010.3 - - - - - - - - -
21/04:00pm 26.7 WSW 12 15 1010.2 - - - - - - - - -
21/03:30pm 26.9 WSW 10 12 1010.1 - - - - - - - - -
21/03:00pm 28.3 WSW 9 11 1010.1 - - - - - - - - -
21/02:30pm 29.1 WSW 6 9 1010.3 - - - - - - - - -
21/02:00pm 29.5 WSW 6 7 1010.6 - - - - - - - - -
21/01:30pm 29.8 SW 3 5 1010.9 - - - - - - - - -
21/01:00pm 30.0 S 2 5 1011.2 - - - - - - - - -
21/12:30pm 29.4 S 2 5 1011.5 - - - - - - - - -
21/12:00pm 27.7 S 3 7 1011.9 - - - - - - - - -
21/11:30am 27.4 S 1 6 1012.4 - - - - - - - - -
21/11:00am 27.0 SSE 8 11 1012.7 - - - - - - - - -
21/10:30am 26.2 SE 9 11 1013.2 - - - - - - - - -
21/10:00am 25.7 SE 11 13 1013.6 - - - - - - - - -
21/09:30am 24.2 ESE 7 9 1013.7 - - - - - - - - -
21/09:00am 23.4 ESE 9 10 1013.8 - - - - - - - - -
21/08:30am 23.1 ESE 10 12 1013.6 - - - - - - - - -
21/08:00am 23.1 ESE 11 13 1013.5 - - - - - - - - -
21/07:30am 23.3 SE 13 16 1013.2 - - - - - - - - -
21/07:00am 23.2 ESE 10 14 1013.0 - - - - - - - - -
21/06:30am 23.3 ESE 10 12 1012.8 - - - - - - - - -
21/06:00am 23.3 SE 10 12 1012.2 - - - - - - - - -
21/05:30am 23.7 SE 12 15 1011.7 - - - - - - - - -
21/05:00am 23.8 SE 12 15 1011.4 - - - - - - - - -
21/04:30am 23.9 SE 10 14 1011.2 - - - - - - - - -
21/04:00am 24.2 SE 11 13 1011.1 - - - - - - - - -
21/03:30am 24.4 SE 11 13 1011.1 - - - - - - - - -
21/03:00am 23.9 ESE 7 8 1011.3 - - - - - - - - -
21/02:30am 23.8 SE 4 5 1011.1 - - - - - - - - -
21/02:00am 24.1 S 4 5 1011.1 - - - - - - - - -
21/01:30am 24.6 SSW 6 7 1011.2 - - - - - - - - -
21/01:00am 24.8 SSW 7 8 1011.5 - - - - - - - - -
21/12:30am 24.4 SW 9 10 1011.6 - - - - - - - - -
21/12:00am 24.4 SW 12 13 1011.9 - - - - - - - - -
 
Date/Time
WST
Temp
°C
Wind Pressure Rain since
9am
mm
Weather Cloud Vis
km
Sea
Height
m
Swell
Dir  Spd
kts
Gust
kts
hPa Trend Height
m
Period
s
Dir
20/11:30pm 24.6 SW 11 13 1012.1 - - - - - - - - -
20/11:00pm 24.8 SW 13 16 1012.3 - - - - - - - - -
20/10:30pm 24.5 SW 9 11 1012.2 - - - - - - - - -
20/10:00pm 24.2 SW 8 9 1012.2 - - - - - - - - -
20/09:30pm 24.2 WSW 9 10 1012.2 - - - - - - - - -
20/09:00pm 24.0 SW 8 10 1012.2 - - - - - - - - -
20/08:30pm 24.3 WSW 8 10 1012.2 - - - - - - - - -
20/08:00pm 24.7 WSW 8 9 1012.1 - - - - - - - - -
20/07:30pm 25.0 W 9 11 1011.9 - - - - - - - - -
20/07:00pm 24.6 W 9 11 1011.5 - - - - - - - - -
20/06:30pm 24.5 WNW 10 13 1011.2 - - - - - - - - -
20/06:00pm 24.5 WNW 12 15 1011.1 - - - - - - - - -
20/05:30pm 24.5 WNW 13 15 1010.9 - - - - - - - - -
20/05:00pm 24.8 WNW 13 16 1010.9 - - - - - - - - -
20/04:30pm 24.7 WNW 15 17 1010.7 - - - - - - - - -
20/04:00pm 24.9 WNW 13 16 1010.7 - - - - - - - - -
20/03:30pm 24.7 WNW 13 17 1010.7 - - - - - - - - -
20/03:00pm 24.8 WNW 14 16 1010.9 - - - - - - - - -
20/02:30pm 24.8 WNW 14 16 1011.0 - - - - - - - - -
20/02:00pm 24.6 WNW 14 16 1011.3 - - - - - - - - -
20/01:30pm 24.4 WNW 13 15 1011.8 - - - - - - - - -
20/01:00pm 24.0 W 12 15 1012.5 - - - - - - - - -
20/12:30pm 24.0 W 13 15 1013.0 - - - - - - - - -
20/12:00pm 23.7 W 10 12 1013.5 - - - - - - - - -
20/11:30am 23.3 WNW 9 11 1014.1 - - - - - - - - -
20/11:00am 23.4 W 7 9 1014.5 - - - - - - - - -
20/10:30am 23.1 WSW 8 10 1014.9 - - - - - - - - -
20/10:00am 23.0 WSW 8 9 1015.3 - - - - - - - - -
20/09:30am 22.9 SW 6 8 1015.6 - - - - - - - - -
20/09:00am 23.1 SSW 4 7 1015.6 - - - - - - - - -
20/08:30am 22.9 SW 7 9 1015.2 - - - - - - - - -
20/08:00am 22.9 SW 4 6 1014.9 - - - - - - - - -
20/07:30am 22.9 SSW 3 5 1014.8 - - - - - - - - -
20/07:00am 22.6 SW 2 3 1014.4 - - - - - - - - -
20/06:30am 21.9 NW 1 1 1014.1 - - - - - - - - -
20/06:00am 21.9 NW 1 2 1013.9 - - - - - - - - -
20/05:30am 21.3 N 1 2 1013.6 - - - - - - - - -
20/05:00am 21.7 ENE 3 5 1013.4 - - - - - - - - -
20/04:30am 22.6 SE 2 3 1013.0 - - - - - - - - -
20/04:00am 22.9 SW 4 7 1012.8 - - - - - - - - -
20/03:30am 23.0 SW 12 14 1012.4 - - - - - - - - -
20/03:00am 22.9 SW 12 16 1012.2 - - - - - - - - -
20/02:30am 22.9 SW 7 9 1012.9 - - - - - - - - -
20/02:00am 23.0 SW 7 8 1012.9 - - - - - - - - -
20/01:30am 23.0 SW 5 6 1013.0 - - - - - - - - -
20/01:00am 23.1 SW 6 7 1013.2 - - - - - - - - -
20/12:30am 23.4 SW 8 9 1013.3 - - - - - - - - -
20/12:00am 23.5 SW 7 8 1013.6 - - - - - - - - -
 
Date/Time
WST
Temp
°C
Wind Pressure Rain since
9am
mm
Weather Cloud Vis
km
Sea
Height
m
Swell
Dir  Spd
kts
Gust
kts
hPa Trend Height
m
Period
s
Dir
19/11:30pm 23.7 WSW 7 9 1013.8 - - - - - - - - -
19/11:00pm 23.8 WSW 8 9 1013.7 - - - - - - - - -
19/10:30pm 23.9 WSW 9 11 1013.6 - - - - - - - - -
19/10:00pm 23.9 WSW 10 12 1013.5 - - - - - - - - -
19/09:30pm 23.9 WSW 11 15 1013.3 - - - - - - - - -
19/09:00pm 23.8 WSW 13 15 1013.2 - - - - - - - - -
19/08:30pm 23.9 WSW 14 17 1013.1 - - - - - - - - -
19/08:00pm 24.0 WSW 15 17 1012.8 - - - - - - - - -
19/07:30pm 24.1 WSW 14 16 1012.4 - - - - - - - - -
19/07:00pm 24.1 WSW 14 16 1012.3 - - - - - - - - -
19/06:30pm 24.2 WSW 12 15 1011.9 - - - - - - - - -
19/06:00pm 24.2 W 10 13 1011.8 - - - - - - - - -
19/05:30pm 24.4 W 13 16 1011.6 - - - - - - - - -
19/05:00pm 24.6 W 12 15 1011.5 - - - - - - - - -
19/04:30pm 24.8 W 13 16 1011.1 - - - - - - - - -
19/04:00pm 24.9 W 13 16 1011.0 - - - - - - - - -
19/03:30pm 25.0 W 14 17 1010.8 - - - - - - - - -
19/03:00pm 25.1 W 14 18 1010.8 - - - - - - - - -
19/02:30pm 25.2 W 13 17 1011.1 - - - - - - - - -
19/02:00pm 25.0 WNW 14 17 1011.3 - - - - - - - - -
19/01:30pm 25.5 WNW 12 15 1011.7 - - - - - - - - -
19/01:00pm 25.2 WNW 11 13 1012.2 - - - - - - - - -
19/12:30pm 25.6 WNW 9 11 1012.8 - - - - - - - - -
19/12:00pm 25.3 WNW 8 9 1013.2 - - - - - - - - -
19/11:30am 24.8 NW 8 9 1013.7 - - - - - - - - -
19/11:00am 24.5 WNW 7 8 1014.1 - - - - - - - - -
19/10:30am 24.0 WNW 6 7 1014.6 - - - - - - - - -
19/10:00am 24.1 WSW 5 6 1015.1 - - - - - - - - -
19/09:30am 23.5 WSW 4 5 1015.4 - - - - - - - - -
19/09:00am 23.1 SW 4 5 1015.5 - - - - - - - - -
19/08:30am 23.2 SW 7 9 1015.3 - - - - - - - - -
19/08:00am 23.4 SSW 8 11 1015.1 - - - - - - - - -
19/07:30am 23.2 SW 9 12 1014.8 - - - - - - - - -
19/07:00am 23.0 SW 8 11 1014.4 - - - - - - - - -
19/06:30am 23.1 SW 9 11 1014.2 - - - - - - - - -
19/06:00am 23.1 SW 8 9 1014.0 - - - - - - - - -
19/05:30am 23.1 SW 7 8 1013.7 - - - - - - - - -
19/05:00am 23.3 SW 6 8 1013.4 - - - - - - - - -
19/04:30am 22.9 SSW 4 6 1013.1 - - - - - - - - -
19/04:00am 23.2 WSW 6 7 1012.8 - - - - - - - - -
19/03:30am 23.1 WSW 8 11 1012.5 - - - - - - - - -
19/03:00am 22.9 WSW 8 10 1012.4 - - - - - - - - -
19/02:30am 23.0 WSW 7 8 1012.5 - - - - - - - - -
19/02:00am 22.9 W 5 7 1012.8 - - - - - - - - -
19/01:30am 22.9 W 4 5 1013.0 - - - - - - - - -
19/01:00am 23.3 W 5 6 1013.2 - - - - - - - - -
19/12:30am 23.8 WSW 5 6 1013.2 - - - - - - - - -
19/12:00am 23.4 W 3 4 1013.4 - - - - - - - - -
 
Date/Time
WST
Temp
°C
Wind Pressure Rain since
9am
mm
Weather Cloud Vis
km
Sea
Height
m
Swell
Dir  Spd
kts
Gust
kts
hPa Trend Height
m
Period
s
Dir
18/11:30pm 23.6 W 3 4 1013.5 - - - - - - - - -
18/11:00pm 23.7 WNW 4 5 1013.5 - - - - - - - - -
18/10:30pm 23.7 WNW 4 5 1013.5 - - - - - - - - -
18/10:00pm 23.8 WNW 4 5 1013.5 - - - - - - - - -
18/09:30pm 24.0 W 4 5 1013.4 - - - - - - - - -
18/09:00pm 24.1 W 4 6 1013.4 - - - - - - - - -
18/08:30pm 24.3 W 5 7 1013.3 - - - - - - - - -

Other Formats:

Comma delimited format used in spreadsheet applications
http://www.bom.gov.au/fwo/IDW60701/IDW60701.95202.axf

JavaScript Object Notation format (JSON) in row-major order
http://www.bom.gov.au/fwo/IDW60701/IDW60701.95202.json